Terminal Aerodrome Forecast
Issued by NWS Tampa Bay Area, FL

Home | Current Version | Previous Version | Text Only | Print | Product List | Glossary On
Versions: 1 2 3 4 5 6 7 8 9 10 11 12 13 14
000
FTUS42 KTBW 221140
TAFSRQ
TAF
KSRQ 221140Z 2212/2312 VRB03KT 6SM BR SCT003 SCT150
      TEMPO 2212/2213 2SM BR BKN002
     FM221500 07005KT P6SM SCT020 SCT150
     FM221800 30007KT P6SM SCT035 SCT150
     FM222300 06005KT P6SM SCT040 BKN150
     FM230800 10008KT P6SM BKN015=

USA.gov is the U.S. government's official web portal to all federal, state and local government web resources and services.